Aline, Oklahoma
Current Conditions -  °F | °C
As of 11:10 AM on Saturday 25 Oct 2014 (Local Time) from KAVK Reporting Station
Clear Clear  
Wind Chill: 72°   Ceiling: Unl
Heat Index: 72°   Visibility: 10mi
Dew Point: 59°   Wind: 0mph
Humidity: 64%   Direction: NA
Pressure: 30.09"   Gusts: NA
Location:  36.51°N, 98.45°W
Report Text: KAVK 251610Z AUTO 00000KT 10SM CLR 22/15 A3009 RMK AO2
Loading
Personal Weather Stations






























Interactive Weather Map New forecast layout! Learn more

10-Day Weather Forecast

Advertisements
Track Severe Weather on mobile